Terminal Aerodrome Forecast
Issued by NWS

Home | Current Version | Previous Version | Graphics & Text | Print | Product List | Glossary On
Versions: 1 2 3 4 5 6 7 8 9 10 11 12
000
FTUS43 KMPX 181738
TAFRNH
TAF
KRNH 181738Z 1818/1918 24012KT P6SM BKN250
     FM182000 25012KT P6SM FEW250
     FM182300 28009KT P6SM SKC
     FM190800 24005KT P6SM SKC
     FM191400 20007KT P6SM SKC=

USA.gov is the U.S. government's official web portal to all federal, state and local government web resources and services.